sensor_id;sensor_type;location;lat;lon;timestamp;pressure;altitude;pressure_sealevel;temperature;humidity
46007;BME280;31738;50.188;8.524;2023-04-07T00:01:50;98774.31;;;9.25;84.87
46007;BME280;31738;50.188;8.524;2023-04-07T00:04:16;98760.41;;;9.23;84.86
46007;BME280;31738;50.188;8.524;2023-04-07T00:06:41;98757.19;;;9.21;84.70
46007;BME280;31738;50.188;8.524;2023-04-07T00:09:08;98759.34;;;9.24;85.20
46007;BME280;31738;50.188;8.524;2023-04-07T00:11:34;98752.91;;;9.25;85.41
46007;BME280;31738;50.188;8.524;2023-04-07T00:14:00;98752.91;;;9.25;85.08
46007;BME280;31738;50.188;8.524;2023-04-07T00:16:25;98754.53;;;9.26;84.77
46007;BME280;31738;50.188;8.524;2023-04-07T00:18:51;98758.81;;;9.27;84.82
46007;BME280;31738;50.188;8.524;2023-04-07T00:21:16;98751.84;;;9.26;85.31
46007;BME280;31738;50.188;8.524;2023-04-07T00:23:42;98749.44;;;9.24;85.20
46007;BME280;31738;50.188;8.524;2023-04-07T00:26:07;98746.75;;;9.24;85.15
46007;BME280;31738;50.188;8.524;2023-04-07T00:28:34;98741.69;;;9.23;84.89
46007;BME280;31738;50.188;8.524;2023-04-07T00:31:00;98738.19;;;9.22;85.09
46007;BME280;31738;50.188;8.524;2023-04-07T00:33:25;98742.72;;;9.22;85.31
46007;BME280;31738;50.188;8.524;2023-04-07T00:35:51;98737.38;;;9.22;85.28
46007;BME280;31738;50.188;8.524;2023-04-07T00:38:18;98736.84;;;9.20;85.47
46007;BME280;31738;50.188;8.524;2023-04-07T00:40:44;98729.59;;;9.20;85.14
46007;BME280;31738;50.188;8.524;2023-04-07T00:43:09;98726.16;;;9.20;85.24
46007;BME280;31738;50.188;8.524;2023-04-07T00:45:35;98734.19;;;9.20;85.05
46007;BME280;31738;50.188;8.524;2023-04-07T00:48:01;98732.56;;;9.19;85.39
46007;BME280;31738;50.188;8.524;2023-04-07T00:50:27;98729.06;;;9.18;85.75
46007;BME280;31738;50.188;8.524;2023-04-07T00:52:52;98721.31;;;9.12;85.83
46007;BME280;31738;50.188;8.524;2023-04-07T00:55:19;98719.69;;;9.11;85.96
46007;BME280;31738;50.188;8.524;2023-04-07T00:57:44;98721.31;;;9.12;85.86
46007;BME280;31738;50.188;8.524;2023-04-07T01:00:11;98712.19;;;9.13;85.76
46007;BME280;31738;50.188;8.524;2023-04-07T01:02:42;98703.63;;;9.11;85.72
46007;BME280;31738;50.188;8.524;2023-04-07T01:05:30;98704.69;;;9.10;86.07
46007;BME280;31738;50.188;8.524;2023-04-07T01:10:47;98692.63;;;8.97;85.57
46007;BME280;31738;50.188;8.524;2023-04-07T01:13:36;98686.22;;;8.93;85.79
46007;BME280;31738;50.188;8.524;2023-04-07T01:16:14;98684.09;;;8.95;86.34
46007;BME280;31738;50.188;8.524;2023-04-07T01:18:45;98682.16;;;8.91;85.63
46007;BME280;31738;50.188;8.524;2023-04-07T01:21:17;98684.31;;;8.89;85.87
46007;BME280;31738;50.188;8.524;2023-04-07T01:26:47;98681.69;;;8.94;86.36
46007;BME280;31738;50.188;8.524;2023-04-07T01:29:29;98681.66;;;8.99;86.11
46007;BME280;31738;50.188;8.524;2023-04-07T01:31:59;98673.91;;;8.97;86.57
46007;BME280;31738;50.188;8.524;2023-04-07T01:34:29;98669.91;;;9.00;86.24
46007;BME280;31738;50.188;8.524;2023-04-07T01:37:02;98666.69;;;8.98;86.65
46007;BME280;31738;50.188;8.524;2023-04-07T01:39:28;98668.28;;;8.99;86.69
46007;BME280;31738;50.188;8.524;2023-04-07T01:41:56;98662.41;;;9.02;86.43
46007;BME280;31738;50.188;8.524;2023-04-07T01:44:23;98665.63;;;9.04;86.64
46007;BME280;31738;50.188;8.524;2023-04-07T01:46:50;98660.28;;;9.04;86.56
46007;BME280;31738;50.188;8.524;2023-04-07T01:49:16;98656.78;;;9.03;86.70
46007;BME280;31738;50.188;8.524;2023-04-07T01:51:43;98656.53;;;9.05;86.56
46007;BME280;31738;50.188;8.524;2023-04-07T01:54:14;98664.81;;;9.03;86.53
46007;BME280;31738;50.188;8.524;2023-04-07T01:56:40;98653.84;;;9.05;86.48
46007;BME280;31738;50.188;8.524;2023-04-07T01:59:05;98660.84;;;9.06;86.97
46007;BME280;31738;50.188;8.524;2023-04-07T02:01:31;98651.19;;;9.05;86.89
46007;BME280;31738;50.188;8.524;2023-04-07T02:04:25;98652.81;;;9.06;86.88
46007;BME280;31738;50.188;8.524;2023-04-07T02:06:58;98652.53;;;9.02;86.48
46007;BME280;31738;50.188;8.524;2023-04-07T02:09:32;98642.63;;;9.03;86.65
46007;BME280;31738;50.188;8.524;2023-04-07T02:12:00;98640.22;;;9.06;86.75
46007;BME280;31738;50.188;8.524;2023-04-07T02:14:34;98640.47;;;9.05;86.84
46007;BME280;31738;50.188;8.524;2023-04-07T02:17:07;98643.69;;;9.07;86.89
46007;BME280;31738;50.188;8.524;2023-04-07T02:19:33;98639.94;;;9.08;87.12
46007;BME280;31738;50.188;8.524;2023-04-07T02:22:04;98638.09;;;9.08;86.65
46007;BME280;31738;50.188;8.524;2023-04-07T02:24:31;98639.94;;;9.08;86.98
46007;BME280;31738;50.188;8.524;2023-04-07T02:26:57;98639.94;;;9.08;86.68
46007;BME280;31738;50.188;8.524;2023-04-07T02:29:23;98644.25;;;9.09;86.52
46007;BME280;31738;50.188;8.524;2023-04-07T02:31:48;98637.81;;;9.10;86.81
46007;BME280;31738;50.188;8.524;2023-04-07T02:34:14;98634.06;;;9.11;87.06
46007;BME280;31738;50.188;8.524;2023-04-07T02:36:40;98634.06;;;9.11;87.03
46007;BME280;31738;50.188;8.524;2023-04-07T02:39:05;98632.47;;;9.10;86.95
46007;BME280;31738;50.188;8.524;2023-04-07T02:41:31;98631.91;;;9.08;86.67
46007;BME280;31738;50.188;8.524;2023-04-07T02:43:58;98636.22;;;9.09;86.89
46007;BME280;31738;50.188;8.524;2023-04-07T02:46:24;98636.22;;;9.09;86.95
46007;BME280;31738;50.188;8.524;2023-04-07T02:48:49;98631.13;;;9.07;87.14
46007;BME280;31738;50.188;8.524;2023-04-07T02:51:16;98634.34;;;9.09;86.92
46007;BME280;31738;50.188;8.524;2023-04-07T02:53:41;98635.16;;;9.10;87.01
46007;BME280;31738;50.188;8.524;2023-04-07T02:56:07;98640.75;;;9.08;86.67
46007;BME280;31738;50.188;8.524;2023-04-07T02:58:32;98632.44;;;9.05;86.94
46007;BME280;31738;50.188;8.524;2023-04-07T03:00:58;98627.38;;;9.03;87.12
46007;BME280;31738;50.188;8.524;2023-04-07T03:03:27;98630.59;;;9.05;87.08
46007;BME280;31738;50.188;8.524;2023-04-07T03:06:15;98619.63;;;9.02;87.25
46007;BME280;31738;50.188;8.524;2023-04-07T03:08:52;98620.41;;;9.02;87.19
46007;BME280;31738;50.188;8.524;2023-04-07T03:11:17;98615.88;;;9.03;87.06
46007;BME280;31738;50.188;8.524;2023-04-07T03:13:44;98625.50;;;9.04;87.08
46007;BME280;31738;50.188;8.524;2023-04-07T03:16:09;98613.72;;;9.05;87.18
46007;BME280;31738;50.188;8.524;2023-04-07T03:18:44;98612.13;;;9.04;87.37
46007;BME280;31738;50.188;8.524;2023-04-07T03:21:10;98608.38;;;9.05;87.54
46007;BME280;31738;50.188;8.524;2023-04-07T03:23:36;98611.59;;;9.07;87.45
46007;BME280;31738;50.188;8.524;2023-04-07T03:26:01;98608.66;;;9.08;87.03
46007;BME280;31738;50.188;8.524;2023-04-07T03:28:31;98611.06;;;9.10;86.90
46007;BME280;31738;50.188;8.524;2023-04-07T03:30:58;98604.13;;;9.09;87.02
46007;BME280;31738;50.188;8.524;2023-04-07T03:33:24;98611.59;;;9.07;86.95
46007;BME280;31738;50.188;8.524;2023-04-07T03:35:53;98615.34;;;9.06;87.14
46007;BME280;31738;50.188;8.524;2023-04-07T03:38:19;98607.06;;;9.07;87.00
46007;BME280;31738;50.188;8.524;2023-04-07T03:40:50;98609.72;;;9.07;87.25
46007;BME280;31738;50.188;8.524;2023-04-07T03:43:16;98610.50;;;9.08;86.99
46007;BME280;31738;50.188;8.524;2023-04-07T03:45:43;98607.84;;;9.08;87.41
46007;BME280;31738;50.188;8.524;2023-04-07T03:48:09;98607.84;;;9.08;87.39
46007;BME280;31738;50.188;8.524;2023-04-07T03:50:38;98607.06;;;9.07;87.09
46007;BME280;31738;50.188;8.524;2023-04-07T03:53:13;98605.16;;;9.08;87.24
46007;BME280;31738;50.188;8.524;2023-04-07T03:55:41;98601.44;;;9.09;86.90
46007;BME280;31738;50.188;8.524;2023-04-07T03:58:14;98603.56;;;9.07;87.11
46007;BME280;31738;50.188;8.524;2023-04-07T04:00:41;98607.84;;;9.08;87.28
46007;BME280;31738;50.188;8.524;2023-04-07T04:03:09;98609.47;;;9.09;86.78
46007;BME280;31738;50.188;8.524;2023-04-07T04:05:40;98606.25;;;9.07;87.38
46007;BME280;31738;50.188;8.524;2023-04-07T04:08:09;98604.66;;;9.06;87.15
46007;BME280;31738;50.188;8.524;2023-04-07T04:10:37;98605.69;;;9.05;86.80
46007;BME280;31738;50.188;8.524;2023-04-07T04:13:03;98604.66;;;9.06;87.39
46007;BME280;31738;50.188;8.524;2023-04-07T04:15:31;98604.09;;;8.99;87.94
46007;BME280;31738;50.188;8.524;2023-04-07T04:17:59;98603.56;;;9.02;87.27
46007;BME280;31738;50.188;8.524;2023-04-07T04:20:25;98599.84;;;9.03;87.30
46007;BME280;31738;50.188;8.524;2023-04-07T04:22:50;98605.19;;;9.03;87.48
46007;BME280;31738;50.188;8.524;2023-04-07T04:25:17;98599.84;;;9.03;87.31
46007;BME280;31738;50.188;8.524;2023-04-07T04:27:46;98603.03;;;9.05;87.18
46007;BME280;31738;50.188;8.524;2023-04-07T04:30:24;98600.34;;;9.05;87.36
46007;BME280;31738;50.188;8.524;2023-04-07T04:32:53;98607.31;;;9.06;87.63
46007;BME280;31738;50.188;8.524;2023-04-07T04:35:26;98597.41;;;9.06;87.63
46007;BME280;31738;50.188;8.524;2023-04-07T04:38:03;98597.69;;;9.05;87.75
46007;BME280;31738;50.188;8.524;2023-04-07T04:40:29;98603.03;;;9.05;87.76
46007;BME280;31738;50.188;8.524;2023-04-07T04:42:55;98599.31;;;9.06;87.80
46007;BME280;31738;50.188;8.524;2023-04-07T04:45:22;98610.53;;;9.03;87.64
46007;BME280;31738;50.188;8.524;2023-04-07T04:47:49;98604.66;;;9.06;87.77
46007;BME280;31738;50.188;8.524;2023-04-07T04:50:15;98602.50;;;9.03;87.64
46007;BME280;31738;50.188;8.524;2023-04-07T04:52:43;98601.16;;;9.00;87.48
46007;BME280;31738;50.188;8.524;2023-04-07T04:55:16;98603.28;;;8.93;88.28
46007;BME280;31738;50.188;8.524;2023-04-07T04:57:42;98598.22;;;8.97;87.57
46007;BME280;31738;50.188;8.524;2023-04-07T05:00:11;98603.56;;;8.97;87.94
46007;BME280;31738;50.188;8.524;2023-04-07T05:02:38;98611.06;;;8.95;88.04
46007;BME280;31738;50.188;8.524;2023-04-07T05:05:06;98606.25;;;8.97;87.92
46007;BME280;31738;50.188;8.524;2023-04-07T05:07:32;98611.06;;;9.00;87.77
46007;BME280;31738;50.188;8.524;2023-04-07T05:09:58;98608.91;;;9.02;87.88
46007;BME280;31738;50.188;8.524;2023-04-07T05:12:23;98614.25;;;9.02;88.15
46007;BME280;31738;50.188;8.524;2023-04-07T05:14:55;98610.81;;;9.01;87.60
46007;BME280;31738;50.188;8.524;2023-04-07T05:17:21;98606.50;;;9.00;88.04
46007;BME280;31738;50.188;8.524;2023-04-07T05:19:47;98613.47;;;9.01;88.03
46007;BME280;31738;50.188;8.524;2023-04-07T05:22:22;98619.09;;;9.00;87.64
46007;BME280;31738;50.188;8.524;2023-04-07T05:24:49;98613.22;;;9.03;87.74
46007;BME280;31738;50.188;8.524;2023-04-07T05:27:16;98614.25;;;9.02;87.70
46007;BME280;31738;50.188;8.524;2023-04-07T05:29:44;98612.13;;;9.04;87.92
46007;BME280;31738;50.188;8.524;2023-04-07T05:32:19;98608.91;;;9.02;87.87
46007;BME280;31738;50.188;8.524;2023-04-07T05:34:44;98612.13;;;9.04;87.78
46007;BME280;31738;50.188;8.524;2023-04-07T05:37:10;98612.13;;;9.04;88.31
46007;BME280;31738;50.188;8.524;2023-04-07T05:39:36;98612.94;;;9.04;87.96
46007;BME280;31738;50.188;8.524;2023-04-07T05:42:03;98608.38;;;9.05;88.09
46007;BME280;31738;50.188;8.524;2023-04-07T05:44:29;98597.69;;;9.05;88.31
46007;BME280;31738;50.188;8.524;2023-04-07T05:46:55;98604.91;;;9.04;87.67
46007;BME280;31738;50.188;8.524;2023-04-07T05:49:23;98615.34;;;9.06;88.02
46007;BME280;31738;50.188;8.524;2023-04-07T05:51:57;98613.47;;;9.01;88.02
46007;BME280;31738;50.188;8.524;2023-04-07T05:54:23;98606.50;;;9.00;88.12
46007;BME280;31738;50.188;8.524;2023-04-07T05:56:50;98608.91;;;9.02;88.29
46007;BME280;31738;50.188;8.524;2023-04-07T05:59:17;98608.91;;;9.02;88.03
46007;BME280;31738;50.188;8.524;2023-04-07T06:01:43;98608.38;;;9.05;88.15
46007;BME280;31738;50.188;8.524;2023-04-07T06:04:09;98610.28;;;9.04;88.38
46007;BME280;31738;50.188;8.524;2023-04-07T06:06:35;98613.72;;;9.05;88.26
46007;BME280;31738;50.188;8.524;2023-04-07T06:09:00;98603.56;;;9.07;88.38
46007;BME280;31738;50.188;8.524;2023-04-07T06:11:26;98616.13;;;9.06;88.56
46007;BME280;31738;50.188;8.524;2023-04-07T06:13:52;98610.78;;;9.06;88.36
46007;BME280;31738;50.188;8.524;2023-04-07T06:16:17;98611.59;;;9.07;88.59
46007;BME280;31738;50.188;8.524;2023-04-07T06:18:43;98609.72;;;9.07;88.49
46007;BME280;31738;50.188;8.524;2023-04-07T06:21:09;98609.47;;;9.09;88.36
46007;BME280;31738;50.188;8.524;2023-04-07T06:23:34;98616.41;;;9.10;88.52
46007;BME280;31738;50.188;8.524;2023-04-07T06:26:00;98613.47;;;9.11;88.48
46007;BME280;31738;50.188;8.524;2023-04-07T06:28:28;98623.34;;;9.11;88.13
46007;BME280;31738;50.188;8.524;2023-04-07T06:30:54;98618.03;;;9.06;88.35
46007;BME280;31738;50.188;8.524;2023-04-07T06:33:19;98608.63;;;9.03;88.44
46007;BME280;31738;50.188;8.524;2023-04-07T06:35:50;98606.50;;;9.05;88.77
46007;BME280;31738;50.188;8.524;2023-04-07T06:38:15;98611.59;;;9.07;88.60
46007;BME280;31738;50.188;8.524;2023-04-07T06:40:41;98613.19;;;9.08;88.34
46007;BME280;31738;50.188;8.524;2023-04-07T06:43:06;98614.00;;;9.08;88.23
46007;BME280;31738;50.188;8.524;2023-04-07T06:45:39;98614.81;;;9.09;88.42
46007;BME280;31738;50.188;8.524;2023-04-07T06:48:05;98618.81;;;9.11;88.51
46007;BME280;31738;50.188;8.524;2023-04-07T06:50:31;98617.47;;;9.14;88.58
46007;BME280;31738;50.188;8.524;2023-04-07T06:52:56;98620.69;;;9.06;88.68
46007;BME280;31738;50.188;8.524;2023-04-07T06:55:22;98619.63;;;9.07;89.10
46007;BME280;31738;50.188;8.524;2023-04-07T06:57:47;98617.75;;;9.07;88.66
46007;BME280;31738;50.188;8.524;2023-04-07T07:00:15;98614.81;;;9.09;88.71
46007;BME280;31738;50.188;8.524;2023-04-07T07:02:40;98622.03;;;9.13;88.86
46007;BME280;31738;50.188;8.524;2023-04-07T07:05:06;98620.69;;;9.16;89.03
46007;BME280;31738;50.188;8.524;2023-04-07T07:07:32;98621.50;;;9.16;88.48
46007;BME280;31738;50.188;8.524;2023-04-07T07:09:57;98624.69;;;9.18;88.54
46007;BME280;31738;50.188;8.524;2023-04-07T07:12:23;98626.59;;;9.18;88.96
46007;BME280;31738;50.188;8.524;2023-04-07T07:14:48;98622.56;;;9.20;88.58
46007;BME280;31738;50.188;8.524;2023-04-07T07:17:14;98633.00;;;9.22;88.79
46007;BME280;31738;50.188;8.524;2023-04-07T07:19:39;98629.28;;;9.23;88.25
46007;BME280;31738;50.188;8.524;2023-04-07T07:22:04;98635.16;;;9.25;88.41
46007;BME280;31738;50.188;8.524;2023-04-07T07:24:30;98630.34;;;9.22;88.53
46007;BME280;31738;50.188;8.524;2023-04-07T07:26:59;98633.56;;;9.24;88.38
46007;BME280;31738;50.188;8.524;2023-04-07T07:29:24;98628.19;;;9.24;89.05
46007;BME280;31738;50.188;8.524;2023-04-07T07:31:50;98632.75;;;9.23;88.95
46007;BME280;31738;50.188;8.524;2023-04-07T07:34:15;98632.22;;;9.26;88.39
46007;BME280;31738;50.188;8.524;2023-04-07T07:36:41;98633.03;;;9.27;88.76
46007;BME280;31738;50.188;8.524;2023-04-07T07:39:06;98627.13;;;9.20;89.07
46007;BME280;31738;50.188;8.524;2023-04-07T07:41:32;98636.22;;;9.19;89.59
46007;BME280;31738;50.188;8.524;2023-04-07T07:43:57;98624.19;;;9.16;89.33
46007;BME280;31738;50.188;8.524;2023-04-07T07:46:22;98628.19;;;9.19;89.42
46007;BME280;31738;50.188;8.524;2023-04-07T07:48:50;98623.38;;;9.21;89.39
46007;BME280;31738;50.188;8.524;2023-04-07T07:51:16;98626.31;;;9.19;89.95
46007;BME280;31738;50.188;8.524;2023-04-07T07:53:43;98630.88;;;9.29;89.57
46007;BME280;31738;50.188;8.524;2023-04-07T07:56:09;98633.53;;;9.34;88.88
46007;BME280;31738;50.188;8.524;2023-04-07T07:58:34;98644.81;;;9.41;89.13
46007;BME280;31738;50.188;8.524;2023-04-07T08:01:00;98639.69;;;9.44;89.34
46007;BME280;31738;50.188;8.524;2023-04-07T08:03:25;98641.88;;;9.42;88.71
46007;BME280;31738;50.188;8.524;2023-04-07T08:05:51;98649.09;;;9.47;89.43
46007;BME280;31738;50.188;8.524;2023-04-07T08:08:16;98653.91;;;9.45;89.45
46007;BME280;31738;50.188;8.524;2023-04-07T08:10:41;98653.63;;;9.46;88.97
46007;BME280;31738;50.188;8.524;2023-04-07T08:13:07;98652.03;;;9.45;89.10
46007;BME280;31738;50.188;8.524;2023-04-07T08:15:32;98656.84;;;9.48;89.03
46007;BME280;31738;50.188;8.524;2023-04-07T08:17:58;98655.50;;;9.51;89.16
46007;BME280;31738;50.188;8.524;2023-04-07T08:20:25;98656.59;;;9.55;89.14
46007;BME280;31738;50.188;8.524;2023-04-07T08:22:51;98666.75;;;9.58;89.00
46007;BME280;31738;50.188;8.524;2023-04-07T08:25:18;98665.41;;;9.60;88.78
46007;BME280;31738;50.188;8.524;2023-04-07T08:27:45;98663.28;;;9.62;88.74
46007;BME280;31738;50.188;8.524;2023-04-07T08:30:10;98675.31;;;9.65;88.82
46007;BME280;31738;50.188;8.524;2023-04-07T08:32:40;98669.41;;;9.68;88.76
46007;BME280;31738;50.188;8.524;2023-04-07T08:35:06;98674.22;;;9.66;88.82
46007;BME280;31738;50.188;8.524;2023-04-07T08:37:33;98670.50;;;9.67;88.35
46007;BME280;31738;50.188;8.524;2023-04-07T08:39:59;98668.88;;;9.66;88.36
46007;BME280;31738;50.188;8.524;2023-04-07T08:42:30;98672.91;;;9.68;88.59
46007;BME280;31738;50.188;8.524;2023-04-07T08:45:00;98677.47;;;9.68;88.62
46007;BME280;31738;50.188;8.524;2023-04-07T08:47:27;98677.72;;;9.71;88.39
46007;BME280;31738;50.188;8.524;2023-04-07T08:49:56;98678.78;;;9.75;88.57
46007;BME280;31738;50.188;8.524;2023-04-07T08:52:32;98672.38;;;9.71;89.00
46007;BME280;31738;50.188;8.524;2023-04-07T08:54:59;98675.84;;;9.67;88.76
46007;BME280;31738;50.188;8.524;2023-04-07T08:57:29;98681.47;;;9.70;88.86
46007;BME280;31738;50.188;8.524;2023-04-07T08:59:55;98683.38;;;9.75;88.68
46007;BME280;31738;50.188;8.524;2023-04-07T09:02:22;98683.06;;;9.66;88.95
46007;BME280;31738;50.188;8.524;2023-04-07T09:04:47;98682.81;;;9.68;88.86
46007;BME280;31738;50.188;8.524;2023-04-07T09:07:13;98685.50;;;9.73;88.78
46007;BME280;31738;50.188;8.524;2023-04-07T09:09:38;98697.81;;;9.79;88.83
46007;BME280;31738;50.188;8.524;2023-04-07T09:12:04;98693.50;;;9.83;88.71
46007;BME280;31738;50.188;8.524;2023-04-07T09:14:29;98690.28;;;9.86;88.48
46007;BME280;31738;50.188;8.524;2023-04-07T09:16:55;98688.97;;;9.88;88.41
46007;BME280;31738;50.188;8.524;2023-04-07T09:19:23;98699.16;;;9.91;88.64
46007;BME280;31738;50.188;8.524;2023-04-07T09:21:50;98699.94;;;9.92;88.56
46007;BME280;31738;50.188;8.524;2023-04-07T09:24:34;98706.91;;;9.93;88.46
46007;BME280;31738;50.188;8.524;2023-04-07T09:27:14;98699.94;;;9.92;88.43
46007;BME280;31738;50.188;8.524;2023-04-07T09:29:42;98699.94;;;9.92;88.60
46007;BME280;31738;50.188;8.524;2023-04-07T09:32:09;98695.13;;;9.94;88.18
46007;BME280;31738;50.188;8.524;2023-04-07T09:34:39;98699.69;;;9.88;88.71
46007;BME280;31738;50.188;8.524;2023-04-07T09:37:06;98698.88;;;9.88;88.92
46007;BME280;31738;50.188;8.524;2023-04-07T09:39:47;98699.16;;;9.91;88.88
46007;BME280;31738;50.188;8.524;2023-04-07T09:42:13;98697.53;;;9.95;89.16
46007;BME280;31738;50.188;8.524;2023-04-07T09:44:39;98699.13;;;10.01;88.99
46007;BME280;31738;50.188;8.524;2023-04-07T09:47:07;98701.00;;;10.06;88.95
46007;BME280;31738;50.188;8.524;2023-04-07T09:49:47;98707.47;;;10.10;88.48
46007;BME280;31738;50.188;8.524;2023-04-07T09:52:13;98702.66;;;10.07;88.54
46007;BME280;31738;50.188;8.524;2023-04-07T09:54:40;98708.50;;;10.04;88.72
46007;BME280;31738;50.188;8.524;2023-04-07T09:57:07;98702.66;;;10.07;88.71
46007;BME280;31738;50.188;8.524;2023-04-07T09:59:36;98701.81;;;10.06;88.53
46007;BME280;31738;50.188;8.524;2023-04-07T10:02:02;98708.00;;;10.07;88.38
46007;BME280;31738;50.188;8.524;2023-04-07T10:04:28;98705.84;;;10.09;89.13
46007;BME280;31738;50.188;8.524;2023-04-07T10:06:55;98706.63;;;10.04;89.14
46007;BME280;31738;50.188;8.524;2023-04-07T10:09:25;98708.78;;;10.07;88.80
46007;BME280;31738;50.188;8.524;2023-04-07T10:11:52;98704.78;;;10.10;88.75
46007;BME280;31738;50.188;8.524;2023-04-07T10:14:19;98705.84;;;10.09;88.58
46007;BME280;31738;50.188;8.524;2023-04-07T10:16:46;98714.38;;;10.06;88.86
46007;BME280;31738;50.188;8.524;2023-04-07T10:19:13;98711.19;;;9.94;89.68
46007;BME280;31738;50.188;8.524;2023-04-07T10:21:40;98710.94;;;10.05;89.28
46007;BME280;31738;50.188;8.524;2023-04-07T10:24:32;98706.66;;;10.14;88.95
46007;BME280;31738;50.188;8.524;2023-04-07T10:27:04;98713.34;;;10.17;88.82
46007;BME280;31738;50.188;8.524;2023-04-07T10:29:34;98705.03;;;10.18;89.22
46007;BME280;31738;50.188;8.524;2023-04-07T10:32:01;98720.28;;;10.23;88.74
46007;BME280;31738;50.188;8.524;2023-04-07T10:37:15;98729.16;;;10.23;88.68
46007;BME280;31738;50.188;8.524;2023-04-07T10:39:48;98722.44;;;10.26;88.71
46007;BME280;31738;50.188;8.524;2023-04-07T10:45:01;98731.56;;;10.30;88.99
46007;BME280;31738;50.188;8.524;2023-04-07T10:47:28;98733.94;;;10.36;88.83
46007;BME280;31738;50.188;8.524;2023-04-07T10:52:48;98736.34;;;10.38;88.89
46007;BME280;31738;50.188;8.524;2023-04-07T10:55:37;98739.84;;;10.33;88.56
46007;BME280;31738;50.188;8.524;2023-04-07T10:58:26;98744.41;;;10.28;88.86
46007;BME280;31738;50.188;8.524;2023-04-07T11:03:52;98738.78;;;10.19;88.99
46007;BME280;31738;50.188;8.524;2023-04-07T11:06:18;98751.66;;;10.17;89.39
46007;BME280;31738;50.188;8.524;2023-04-07T11:08:45;98752.72;;;10.21;88.97
46007;BME280;31738;50.188;8.524;2023-04-07T11:11:15;98747.09;;;10.18;89.19
46007;BME280;31738;50.188;8.524;2023-04-07T11:13:48;98749.25;;;10.16;89.26
46007;BME280;31738;50.188;8.524;2023-04-07T11:16:15;98755.13;;;10.18;89.26
46007;BME280;31738;50.188;8.524;2023-04-07T11:18:42;98747.91;;;10.23;89.24
46007;BME280;31738;50.188;8.524;2023-04-07T11:21:08;98750.84;;;10.27;89.19
46007;BME280;31738;50.188;8.524;2023-04-07T11:23:41;98749.22;;;10.26;88.94
46007;BME280;31738;50.188;8.524;2023-04-07T11:26:08;98749.78;;;10.18;89.15
46007;BME280;31738;50.188;8.524;2023-04-07T11:28:45;98751.94;;;10.16;89.25
46007;BME280;31738;50.188;8.524;2023-04-07T11:31:11;98757.81;;;10.18;89.60
46007;BME280;31738;50.188;8.524;2023-04-07T11:33:38;98758.34;;;10.15;89.57
46007;BME280;31738;50.188;8.524;2023-04-07T11:36:05;98762.63;;;10.21;89.16
46007;BME280;31738;50.188;8.524;2023-04-07T11:38:35;98756.22;;;10.27;89.62
46007;BME280;31738;50.188;8.524;2023-04-07T11:41:12;98763.19;;;10.33;89.24
46007;BME280;31738;50.188;8.524;2023-04-07T11:43:38;98754.31;;;10.32;89.21
46007;BME280;31738;50.188;8.524;2023-04-07T11:46:18;98758.91;;;10.27;89.44
46007;BME280;31738;50.188;8.524;2023-04-07T11:48:44;98752.72;;;10.31;89.47
46007;BME280;31738;50.188;8.524;2023-04-07T11:51:17;98761.00;;;10.40;89.46
46007;BME280;31738;50.188;8.524;2023-04-07T11:53:43;98764.50;;;10.30;89.52
46007;BME280;31738;50.188;8.524;2023-04-07T11:56:12;98765.28;;;10.41;89.69
46007;BME280;31738;50.188;8.524;2023-04-07T11:58:50;98767.41;;;10.44;89.21
46007;BME280;31738;50.188;8.524;2023-04-07T12:01:16;98771.19;;;10.43;89.31
46007;BME280;31738;50.188;8.524;2023-04-07T12:04:02;98777.59;;;10.47;89.25
46007;BME280;31738;50.188;8.524;2023-04-07T12:06:30;98774.91;;;10.52;89.35
46007;BME280;31738;50.188;8.524;2023-04-07T12:08:59;98776.00;;;10.51;89.58
46007;BME280;31738;50.188;8.524;2023-04-07T12:11:25;98775.19;;;10.56;89.29
46007;BME280;31738;50.188;8.524;2023-04-07T12:13:50;98780.81;;;10.59;89.00
46007;BME280;31738;50.188;8.524;2023-04-07T12:16:17;98779.75;;;10.60;89.22
46007;BME280;31738;50.188;8.524;2023-04-07T12:18:43;98779.72;;;10.65;89.02
46007;BME280;31738;50.188;8.524;2023-04-07T12:21:09;98782.38;;;10.70;89.25
46007;BME280;31738;50.188;8.524;2023-04-07T12:23:34;98788.28;;;10.67;88.87
46007;BME280;31738;50.188;8.524;2023-04-07T12:26:00;98790.69;;;10.69;89.11
46007;BME280;31738;50.188;8.524;2023-04-07T12:28:26;98793.09;;;10.75;88.90
46007;BME280;31738;50.188;8.524;2023-04-07T12:30:52;98796.84;;;10.79;88.69
46007;BME280;31738;50.188;8.524;2023-04-07T12:33:18;98789.03;;;10.88;88.99
46007;BME280;31738;50.188;8.524;2023-04-07T12:35:43;98790.34;;;11.00;88.68
46007;BME280;31738;50.188;8.524;2023-04-07T12:38:09;98791.66;;;11.13;88.55
46007;BME280;31738;50.188;8.524;2023-04-07T12:40:34;98798.34;;;11.15;88.51
46007;BME280;31738;50.188;8.524;2023-04-07T12:43:01;98785.16;;;11.19;88.99
46007;BME280;31738;50.188;8.524;2023-04-07T12:45:26;98787.50;;;11.35;88.76
46007;BME280;31738;50.188;8.524;2023-04-07T12:47:54;98793.81;;;11.54;88.03
46007;BME280;31738;50.188;8.524;2023-04-07T12:50:20;98801.34;;;11.62;87.85
46007;BME280;31738;50.188;8.524;2023-04-07T12:52:45;98803.72;;;11.69;87.47
46007;BME280;31738;50.188;8.524;2023-04-07T12:55:12;98800.50;;;11.67;87.24
46007;BME280;31738;50.188;8.524;2023-04-07T12:57:38;98813.72;;;11.48;86.80
46007;BME280;31738;50.188;8.524;2023-04-07T13:00:04;98815.09;;;11.46;87.13
46007;BME280;31738;50.188;8.524;2023-04-07T13:02:30;98819.09;;;11.53;87.18
46007;BME280;31738;50.188;8.524;2023-04-07T13:04:55;98817.44;;;11.62;86.28
46007;BME280;31738;50.188;8.524;2023-04-07T13:07:21;98814.47;;;11.69;86.22
46007;BME280;31738;50.188;8.524;2023-04-07T13:09:46;98824.91;;;11.75;85.91
46007;BME280;31738;50.188;8.524;2023-04-07T13:12:12;98817.06;;;11.79;85.91
46007;BME280;31738;50.188;8.524;2023-04-07T13:14:39;98828.84;;;11.88;85.58
46007;BME280;31738;50.188;8.524;2023-04-07T13:17:05;98829.88;;;11.97;85.64
46007;BME280;31738;50.188;8.524;2023-04-07T13:19:32;98827.34;;;12.11;85.64
46007;BME280;31738;50.188;8.524;2023-04-07T13:21:58;98826.19;;;12.22;85.14
46007;BME280;31738;50.188;8.524;2023-04-07T13:24:23;98822.84;;;12.35;85.11
46007;BME280;31738;50.188;8.524;2023-04-07T13:26:50;98828.09;;;12.50;84.57
46007;BME280;31738;50.188;8.524;2023-04-07T13:29:16;98826.72;;;12.52;84.75